Time;durP1;ratioP1;P1;durP2;ratioP2;P2;SDS_P1;SDS_P2;PMS_P1;PMS_P2;Temp;Humidity;BMP_temperature;BMP_pressure;BME280_temperature;BME280_humidity;BME280_pressure;Samples;Min_cycle;Max_cycle;Signal;HPM_P1;HPM_P2
2023/07/03 00:02:01;;;;;;;25.25;5.47;;;18.40;99.90;;;;;;4860534;29;20029;-83
2023/07/03 00:04:27;;;;;;;19.95;4.85;;;18.40;99.90;;;;;;4861655;29;20108;-83
2023/07/03 00:06:53;;;;;;;26.70;5.75;;;18.40;99.90;;;;;;4861778;29;20117;-83
2023/07/03 00:09:19;;;;;;;26.92;6.00;;;18.40;99.90;;;;;;4861552;29;20557;-83
2023/07/03 00:11:44;;;;;;;28.15;6.07;;;18.40;99.90;;;;;;4861202;29;20040;-83
2023/07/03 00:14:10;;;;;;;23.75;6.20;;;18.70;99.90;;;;;;4861967;29;20021;-83
2023/07/03 00:16:35;;;;;;;25.77;6.10;;;18.40;99.90;;;;;;4861926;29;20485;-83
2023/07/03 00:19:01;;;;;;;24.00;5.78;;;18.40;99.90;;;;;;4861114;29;20030;-83
2023/07/03 00:21:27;;;;;;;30.90;5.40;;;18.40;99.90;;;;;;4861647;29;20030;-83
2023/07/03 00:23:52;;;;;;;21.33;6.28;;;18.40;99.90;;;;;;4861363;29;20029;-83
2023/07/03 00:26:19;;;;;;;27.05;5.72;;;18.40;99.90;;;;;;4860723;29;20076;-83
2023/07/03 00:28:44;;;;;;;27.05;5.28;;;18.30;99.90;;;;;;4861480;29;20059;-83
2023/07/03 00:31:10;;;;;;;24.70;5.82;;;18.30;99.90;;;;;;4861384;29;20057;-83
2023/07/03 00:33:35;;;;;;;22.05;5.63;;;18.30;99.90;;;;;;4861305;29;20037;-83
2023/07/03 00:36:01;;;;;;;20.85;5.18;;;18.30;99.90;;;;;;4861300;29;20522;-83
2023/07/03 00:38:27;;;;;;;24.38;5.50;;;18.30;99.90;;;;;;4861738;29;20032;-82
2023/07/03 00:40:52;;;;;;;19.13;5.70;;;18.30;99.90;;;;;;4860871;29;20028;-83
2023/07/03 00:43:18;;;;;;;28.85;6.20;;;18.30;99.90;;;;;;4861182;29;20387;-83
2023/07/03 00:45:43;;;;;;;34.78;6.68;;;18.20;99.90;;;;;;4861607;29;20379;-83
2023/07/03 00:48:09;;;;;;;26.15;6.38;;;18.20;99.90;;;;;;4864752;29;20041;-83
2023/07/03 00:50:35;;;;;;;23.08;5.50;;;18.20;99.90;;;;;;4885761;29;20043;-82
2023/07/03 00:53:03;;;;;;;24.80;6.50;;;18.20;99.90;;;;;;4881180;29;20033;-83
2023/07/03 00:55:31;;;;;;;31.73;7.22;;;18.10;99.90;;;;;;4861298;29;20084;-82
2023/07/03 00:57:57;;;;;;;34.10;6.78;;;18.20;99.90;;;;;;4860781;29;20067;-82
2023/07/03 01:00:28;;;;;;;37.38;6.65;;;18.20;99.90;;;;;;4860797;29;20026;-82
2023/07/03 01:03:12;;;;;;;30.80;5.95;;;18.20;99.90;;;;;;4861247;29;20036;-82
2023/07/03 01:05:45;;;;;;;23.90;6.22;;;18.10;99.90;;;;;;4860988;29;20412;-82
2023/07/03 01:08:11;;;;;;;25.88;6.43;;;18.10;99.90;;;;;;4860715;29;20042;-82
2023/07/03 01:10:38;;;;;;;30.55;6.28;;;18.10;99.90;;;;;;4860919;29;20040;-82
2023/07/03 01:13:08;;;;;;;23.05;6.53;;;18.20;99.90;;;;;;4860143;29;20030;-82
2023/07/03 01:15:38;;;;;;;25.58;5.70;;;18.60;99.90;;;;;;4860443;29;20573;-82
2023/07/03 01:18:05;;;;;;;32.33;6.03;;;18.20;99.90;;;;;;4860610;29;20113;-82
2023/07/03 01:20:40;;;;;;;31.88;6.03;;;18.20;99.90;;;;;;4860545;29;20367;-82
2023/07/03 01:23:23;;;;;;;25.13;5.97;;;18.20;99.90;;;;;;4859974;29;20561;-83
2023/07/03 01:25:50;;;;;;;24.55;6.07;;;18.20;99.90;;;;;;4860184;29;20697;-83
2023/07/03 01:28:19;;;;;;;22.33;6.45;;;18.20;99.90;;;;;;4859913;29;20045;-82
2023/07/03 01:30:46;;;;;;;24.92;6.15;;;18.20;99.90;;;;;;4860647;29;20036;-82
2023/07/03 01:33:17;;;;;;;32.13;6.72;;;18.10;99.90;;;;;;4860369;29;20030;-83
2023/07/03 01:35:46;;;;;;;29.58;6.30;;;18.10;99.90;;;;;;4860216;29;20029;-82
2023/07/03 01:38:12;;;;;;;35.38;7.53;;;18.10;99.90;;;;;;4860643;29;20551;-82
2023/07/03 01:40:38;;;;;;;41.08;6.90;;;18.10;99.90;;;;;;4860029;29;20518;-82
2023/07/03 01:43:06;;;;;;;25.75;6.88;;;18.90;99.90;;;;;;4860047;29;20367;-82
2023/07/03 01:45:33;;;;;;;32.22;7.20;;;18.10;99.90;;;;;;4860506;29;20037;-82
2023/07/03 01:47:59;;;;;;;31.30;6.43;;;18.20;99.90;;;;;;4859888;29;20041;-82
2023/07/03 01:50:28;;;;;;;28.98;6.45;;;18.10;99.90;;;;;;4860151;29;20029;-82
2023/07/03 01:53:10;;;;;;;30.25;6.13;;;18.10;99.90;;;;;;4860056;29;20034;-82
2023/07/03 01:55:49;;;;;;;29.92;6.97;;;18.10;99.90;;;;;;4860406;29;20029;-82
2023/07/03 01:58:46;;;;;;;31.60;6.63;;;18.10;99.90;;;;;;4859850;29;20034;-82
2023/07/03 02:01:17;;;;;;;30.65;6.57;;;18.10;99.90;;;;;;4860280;29;20029;-82
2023/07/03 02:03:51;;;;;;;31.35;6.32;;;18.10;99.90;;;;;;4859835;29;20067;-82
2023/07/03 02:06:24;;;;;;;29.20;6.28;;;18.10;99.90;;;;;;4860206;29;20116;-82
2023/07/03 02:08:52;;;;;;;33.22;7.30;;;18.50;99.90;;;;;;4859594;29;20490;-82
2023/07/03 02:11:21;;;;;;;38.50;7.55;;;18.10;99.90;;;;;;4859683;29;20201;-82
2023/07/03 02:13:47;;;;;;;32.28;7.53;;;18.10;99.90;;;;;;4860071;29;20029;-82
2023/07/03 02:16:15;;;;;;;30.88;7.18;;;18.10;99.90;;;;;;4860110;29;20032;-83
2023/07/03 02:18:46;;;;;;;31.65;6.78;;;18.10;99.90;;;;;;4859492;29;20040;-82
2023/07/03 02:21:13;;;;;;;31.67;6.80;;;18.00;99.90;;;;;;4860002;29;20037;-82
2023/07/03 02:23:39;;;;;;;28.73;6.65;;;18.00;99.90;;;;;;4859948;29;20033;-82
2023/07/03 02:26:04;;;;;;;38.28;8.68;;;18.00;99.90;;;;;;4862236;29;20144;-82
2023/07/03 02:28:30;;;;;;;28.27;7.07;;;18.10;99.90;;;;;;4863564;29;20025;-82
2023/07/03 02:30:55;;;;;;;37.83;7.20;;;18.00;99.90;;;;;;4863607;29;20029;-82
2023/07/03 02:33:30;;;;;;;32.67;7.18;;;18.00;99.90;;;;;;4863152;29;20037;-82
2023/07/03 02:35:56;;;;;;;34.25;7.78;;;18.00;99.90;;;;;;4884718;29;20022;-82
2023/07/03 02:38:21;;;;;;;29.65;7.63;;;18.00;99.90;;;;;;4886505;29;20036;-82
2023/07/03 02:40:47;;;;;;;31.33;7.05;;;18.10;99.90;;;;;;4866015;29;20090;-83
2023/07/03 02:43:13;;;;;;;26.17;6.18;;;18.10;99.90;;;;;;4863563;29;20037;-82
2023/07/03 02:45:41;;;;;;;31.58;7.25;;;18.80;99.90;;;;;;4863201;29;20090;-82
2023/07/03 02:48:08;;;;;;;36.50;7.07;;;18.00;99.90;;;;;;4863060;29;20041;-82
2023/07/03 02:50:34;;;;;;;32.13;7.53;;;18.70;99.90;;;;;;4863206;29;20030;-82
2023/07/03 02:53:00;;;;;;;30.65;7.55;;;18.00;99.90;;;;;;4862993;29;20029;-82
2023/07/03 02:55:26;;;;;;;29.15;7.15;;;17.90;99.90;;;;;;4863615;29;20036;-82
2023/07/03 02:57:52;;;;;;;31.52;7.32;;;18.10;99.90;;;;;;4862980;29;20406;-83
2023/07/03 03:00:17;;;;;;;36.30;8.70;;;18.00;99.90;;;;;;4862772;29;20037;-83
2023/07/03 03:02:44;;;;;;;36.58;7.75;;;17.90;99.90;;;;;;4863188;29;20033;-83
2023/07/03 03:05:10;;;;;;;28.92;7.00;;;17.90;99.90;;;;;;4862872;29;20033;-83
2023/07/03 03:07:36;;;;;;;27.02;7.72;;;17.90;99.90;;;;;;4862861;29;20125;-83
2023/07/03 03:10:02;;;;;;;37.33;8.13;;;17.90;99.90;;;;;;4862664;29;20021;-83
2023/07/03 03:12:28;;;;;;;25.40;6.60;;;17.90;99.90;;;;;;4863094;29;20044;-83
2023/07/03 03:14:54;;;;;;;26.90;6.18;;;17.90;99.90;;;;;;4861873;29;20029;-83
2023/07/03 03:17:19;;;;;;;34.08;8.05;;;17.90;99.90;;;;;;4863055;29;20394;-83
2023/07/03 03:19:45;;;;;;;27.02;5.88;;;17.90;99.90;;;;;;4862512;29;20032;-83
2023/07/03 03:22:11;;;;;;;25.17;6.28;;;17.90;99.90;;;;;;4862699;29;20034;-83
2023/07/03 03:24:36;;;;;;;17.10;4.68;;;17.90;99.90;;;;;;4862852;29;20025;-83
2023/07/03 03:27:06;;;;;;;21.85;5.15;;;17.90;99.90;;;;;;4862504;29;20435;-83
2023/07/03 03:29:32;;;;;;;17.53;4.70;;;17.80;99.90;;;;;;4862326;29;20038;-83
2023/07/03 03:31:58;;;;;;;15.98;4.65;;;17.90;99.90;;;;;;4862167;29;20041;-83
2023/07/03 03:34:23;;;;;;;13.93;3.75;;;17.90;99.90;;;;;;4862965;29;20017;-83
2023/07/03 03:36:49;;;;;;;10.45;3.33;;;17.90;99.90;;;;;;4861834;29;20041;-83
2023/07/03 03:39:15;;;;;;;9.82;3.08;;;17.90;99.90;;;;;;4862675;29;20121;-83
2023/07/03 03:41:40;;;;;;;13.05;3.03;;;17.90;99.90;;;;;;4862188;29;20030;-83
2023/07/03 03:44:06;;;;;;;10.25;2.53;;;17.90;99.90;;;;;;4862395;29;20025;-83
2023/07/03 03:46:32;;;;;;;7.68;2.20;;;17.90;99.90;;;;;;4862397;29;20044;-83
2023/07/03 03:48:58;;;;;;;10.32;2.38;;;17.90;99.90;;;;;;4861666;29;20036;-83
2023/07/03 03:51:23;;;;;;;6.68;2.25;;;17.90;99.90;;;;;;4862680;29;20032;-82
2023/07/03 03:53:49;;;;;;;5.78;2.80;;;17.90;99.90;;;;;;4862199;29;20471;-83
2023/07/03 03:56:14;;;;;;;7.43;2.17;;;17.80;99.90;;;;;;4861530;29;20066;-83
2023/07/03 03:58:40;;;;;;;7.95;1.80;;;17.80;99.90;;;;;;4862274;29;20068;-83
2023/07/03 04:01:06;;;;;;;8.13;2.10;;;17.80;99.90;;;;;;4861935;29;20026;-82
2023/07/03 04:03:31;;;;;;;9.10;2.13;;;17.70;99.60;;;;;;4861878;29;20465;-83
2023/07/03 04:05:57;;;;;;;10.00;1.92;;;17.80;99.70;;;;;;4862165;29;20034;-83
2023/07/03 04:08:23;;;;;;;11.05;2.33;;;17.70;99.40;;;;;;4862025;29;20128;-82
2023/07/03 04:10:48;;;;;;;9.98;2.63;;;17.70;99.80;;;;;;4861264;29;20116;-83
2023/07/03 04:13:14;;;;;;;9.35;1.75;;;17.70;99.90;;;;;;4861866;29;20033;-82
2023/07/03 04:16:00;;;;;;;6.70;1.80;;;17.60;99.90;;;;;;4861933;29;20117;-83
2023/07/03 04:18:26;;;;;;;5.53;1.60;;;17.70;99.90;;;;;;4861916;29;20056;-83
2023/07/03 04:20:52;;;;;;;7.63;1.88;;;17.70;99.90;;;;;;4874306;29;20018;-82
2023/07/03 04:23:18;;;;;;;9.10;2.47;;;17.70;99.90;;;;;;4885909;29;20036;-83
2023/07/03 04:25:44;;;;;;;8.60;1.83;;;17.70;99.90;;;;;;4871071;29;20061;-83
2023/07/03 04:28:15;;;;;;;11.30;2.47;;;17.70;99.90;;;;;;4861482;29;20041;-83
2023/07/03 04:30:41;;;;;;;8.43;2.67;;;17.70;99.90;;;;;;4861682;29;20495;-82
2023/07/03 04:33:07;;;;;;;10.95;2.35;;;17.60;99.90;;;;;;4861039;29;20041;-83
2023/07/03 04:35:32;;;;;;;7.72;2.25;;;18.10;99.90;;;;;;4861456;29;20033;-83
2023/07/03 04:38:01;;;;;;;9.98;2.00;;;17.60;99.90;;;;;;4861017;29;20048;-83
2023/07/03 04:40:27;;;;;;;7.30;2.10;;;17.60;99.90;;;;;;4861550;29;20435;-83
2023/07/03 04:42:53;;;;;;;10.48;2.20;;;17.60;99.90;;;;;;4861061;29;20029;-83
2023/07/03 04:45:21;;;;;;;12.23;2.17;;;17.60;99.90;;;;;;4844566;29;20030;-83
2023/07/03 04:47:47;;;;;;;8.63;2.15;;;17.70;99.90;;;;;;4860654;29;20037;-82
2023/07/03 04:50:16;;;;;;;8.63;2.53;;;17.70;99.90;;;;;;4861354;29;20025;-83
2023/07/03 04:52:43;;;;;;;8.80;2.42;;;17.60;99.90;;;;;;4860830;29;20029;-82
2023/07/03 04:55:11;;;;;;;7.50;2.42;;;17.70;99.90;;;;;;4861210;29;20037;-82
2023/07/03 04:57:42;;;;;;;6.97;2.50;;;17.70;99.90;;;;;;4861057;29;20070;-83
2023/07/03 05:00:14;;;;;;;13.82;2.40;;;17.70;99.90;;;;;;4860860;29;20032;-82
2023/07/03 05:02:40;;;;;;;8.18;2.05;;;17.70;99.90;;;;;;4861370;29;20041;-82
2023/07/03 05:05:06;;;;;;;8.57;2.30;;;17.60;99.90;;;;;;4860830;29;20074;-82
2023/07/03 05:07:32;;;;;;;9.52;2.25;;;17.70;99.90;;;;;;4860727;29;20069;-82
2023/07/03 05:09:58;;;;;;;7.53;2.08;;;17.70;99.90;;;;;;4860653;29;20030;-82
2023/07/03 05:12:24;;;;;;;11.68;2.47;;;17.70;99.90;;;;;;4861168;29;20052;-83
2023/07/03 05:14:49;;;;;;;10.18;2.60;;;17.70;99.90;;;;;;4860457;29;20037;-82
2023/07/03 05:17:15;;;;;;;7.15;2.03;;;17.70;99.90;;;;;;4860953;29;20061;-82
2023/07/03 05:19:40;;;;;;;6.40;1.92;;;17.70;99.90;;;;;;4860664;29;20135;-82
2023/07/03 05:22:06;;;;;;;10.93;2.70;;;17.70;99.90;;;;;;4860523;29;20041;-82
2023/07/03 05:24:31;;;;;;;9.70;2.22;;;17.70;99.90;;;;;;4860476;29;20029;-82
2023/07/03 05:26:57;;;;;;;6.57;2.05;;;17.80;99.90;;;;;;4860821;29;20033;-82
2023/07/03 05:29:23;;;;;;;16.92;2.75;;;17.80;99.90;;;;;;4860481;29;20033;-82
2023/07/03 05:31:48;;;;;;;11.07;3.42;;;17.80;99.90;;;;;;4860285;29;20077;-82
2023/07/03 05:34:14;;;;;;;11.57;2.97;;;17.70;99.90;;;;;;4860511;29;20463;-83
2023/07/03 05:36:40;;;;;;;11.10;2.65;;;17.70;99.90;;;;;;4860661;29;20444;-82
2023/07/03 05:39:05;;;;;;;12.90;2.35;;;17.80;99.90;;;;;;4860277;29;20508;-82
2023/07/03 05:41:31;;;;;;;9.02;2.53;;;17.70;99.90;;;;;;4860372;29;20029;-83
2023/07/03 05:43:56;;;;;;;7.47;2.22;;;17.80;99.90;;;;;;4860281;29;20143;-83
2023/07/03 05:46:22;;;;;;;11.75;1.90;;;17.80;99.90;;;;;;4860100;29;20081;-83
2023/07/03 05:48:47;;;;;;;10.98;2.30;;;17.80;99.90;;;;;;4859883;29;20026;-83
2023/07/03 05:51:13;;;;;;;8.63;1.95;;;17.80;99.90;;;;;;4860589;29;20055;-83
2023/07/03 05:53:38;;;;;;;8.45;2.53;;;18.00;99.90;;;;;;4860368;29;20038;-82
2023/07/03 05:56:04;;;;;;;6.63;2.58;;;17.80;99.90;;;;;;4859366;29;20511;-82
2023/07/03 05:58:30;;;;;;;11.88;2.75;;;17.70;99.90;;;;;;4860353;29;20093;-82
2023/07/03 06:00:58;;;;;;;11.65;2.90;;;17.80;99.90;;;;;;4860170;29;20061;-82
2023/07/03 06:03:24;;;;;;;10.98;2.63;;;17.70;99.90;;;;;;4859922;29;20037;-82
2023/07/03 06:05:51;;;;;;;10.95;2.67;;;17.70;99.90;;;;;;4861113;29;20029;-82
2023/07/03 06:08:17;;;;;;;10.23;2.25;;;17.70;99.90;;;;;;4884573;29;20037;-83
2023/07/03 06:10:42;;;;;;;9.85;2.75;;;17.80;99.90;;;;;;4881909;29;20058;-82
2023/07/03 06:13:08;;;;;;;22.95;2.67;;;17.80;99.90;;;;;;4862525;29;20470;-82
2023/07/03 06:15:36;;;;;;;9.25;1.95;;;17.80;99.90;;;;;;4860494;29;20026;-82
2023/07/03 06:18:05;;;;;;;4.45;2.22;;;17.80;99.90;;;;;;4859899;29;20043;-83
2023/07/03 06:20:31;;;;;;;15.40;2.33;;;17.80;99.90;;;;;;4860083;29;20471;-82
2023/07/03 06:22:56;;;;;;;8.80;2.72;;;17.80;99.90;;;;;;4860183;29;20045;-82
2023/07/03 06:25:22;;;;;;;9.57;2.40;;;17.80;99.90;;;;;;4859904;29;20061;-82
2023/07/03 06:27:48;;;;;;;10.68;2.92;;;17.80;99.90;;;;;;4859811;29;20049;-83
2023/07/03 06:30:14;;;;;;;8.93;2.38;;;17.80;99.90;;;;;;4861454;29;20034;-82
2023/07/03 06:32:39;;;;;;;9.43;2.35;;;17.90;99.90;;;;;;4859979;29;20117;-82
2023/07/03 06:35:06;;;;;;;15.10;2.97;;;17.80;99.90;;;;;;4859866;29;20037;-82
2023/07/03 06:37:33;;;;;;;10.40;2.45;;;17.90;99.90;;;;;;4859933;29;20034;-83
2023/07/03 06:39:59;;;;;;;9.10;2.47;;;17.90;99.90;;;;;;4859951;29;20467;-83
2023/07/03 06:42:25;;;;;;;7.97;2.15;;;17.90;99.90;;;;;;4859899;29;20036;-83
2023/07/03 06:44:50;;;;;;;6.15;2.15;;;17.90;99.90;;;;;;4859853;29;20112;-83
2023/07/03 06:47:16;;;;;;;10.57;2.65;;;18.50;99.90;;;;;;4859830;29;20042;-83
2023/07/03 06:49:41;;;;;;;6.53;1.75;;;18.00;99.90;;;;;;4859535;29;20108;-83
2023/07/03 06:52:10;;;;;;;6.07;1.98;;;18.00;99.90;;;;;;4859476;29;20542;-83
2023/07/03 06:54:35;;;;;;;7.07;2.08;;;18.00;99.90;;;;;;4859961;29;20026;-83
2023/07/03 06:57:01;;;;;;;10.35;3.15;;;18.00;99.90;;;;;;4860404;29;20044;-82
2023/07/03 06:59:27;;;;;;;10.57;2.72;;;17.90;99.90;;;;;;4859801;29;20028;-83
2023/07/03 07:01:52;;;;;;;8.50;2.10;;;18.00;99.90;;;;;;4859336;29;20556;-83
2023/07/03 07:04:18;;;;;;;6.60;2.15;;;18.00;99.90;;;;;;4859939;29;20121;-83
2023/07/03 07:06:44;;;;;;;17.77;4.05;;;18.00;99.90;;;;;;4859379;29;20065;-83
2023/07/03 07:09:09;;;;;;;10.25;2.65;;;18.00;99.90;;;;;;4859928;29;20034;-83
2023/07/03 07:11:35;;;;;;;6.15;1.80;;;18.10;99.90;;;;;;4861558;29;20082;-83
2023/07/03 07:14:04;;;;;;;12.65;2.85;;;18.00;99.90;;;;;;4862884;29;20029;-83
2023/07/03 07:16:36;;;;;;;12.30;2.88;;;18.30;99.90;;;;;;4862999;29;20093;-83
2023/07/03 07:19:04;;;;;;;11.40;3.03;;;18.00;99.90;;;;;;4862993;29;20030;-83
2023/07/03 07:21:32;;;;;;;9.93;2.88;;;18.00;99.90;;;;;;4862546;29;21069;-83
2023/07/03 07:24:11;;;;;;;10.13;2.45;;;18.00;99.90;;;;;;4863137;29;20029;-83
2023/07/03 07:26:36;;;;;;;13.68;2.78;;;18.00;99.90;;;;;;4863062;29;20140;-83
2023/07/03 07:29:03;;;;;;;11.38;2.47;;;18.30;99.90;;;;;;4862734;29;20085;-83
2023/07/03 07:31:29;;;;;;;8.65;2.25;;;18.00;99.90;;;;;;4862862;29;20483;-83
2023/07/03 07:33:55;;;;;;;12.35;3.17;;;18.00;99.90;;;;;;4862218;29;20041;-83
2023/07/03 07:36:22;;;;;;;17.05;3.88;;;18.70;99.90;;;;;;4863185;29;20025;-83
2023/07/03 07:38:54;;;;;;;11.57;3.25;;;18.00;99.90;;;;;;4862399;29;20029;-83
2023/07/03 07:41:20;;;;;;;15.30;3.22;;;18.00;99.90;;;;;;4862439;29;20034;-83
2023/07/03 07:43:48;;;;;;;11.32;2.92;;;18.00;99.90;;;;;;4862383;29;20026;-83
2023/07/03 07:46:14;;;;;;;15.18;3.25;;;18.00;99.90;;;;;;4862675;29;20494;-82
2023/07/03 07:48:40;;;;;;;13.38;3.70;;;18.00;99.90;;;;;;4862549;29;20041;-82
2023/07/03 07:51:10;;;;;;;13.25;3.67;;;18.00;99.90;;;;;;4862307;29;20543;-83
2023/07/03 07:53:37;;;;;;;7.65;2.47;;;18.00;99.90;;;;;;4882929;29;20018;-83
2023/07/03 07:56:05;;;;;;;13.52;2.97;;;18.00;99.90;;;;;;4876775;29;20029;-83
2023/07/03 07:58:31;;;;;;;13.27;2.83;;;18.10;99.90;;;;;;4863785;29;20067;-83
2023/07/03 08:00:58;;;;;;;10.20;2.67;;;18.10;99.90;;;;;;4862197;29;20034;-83
2023/07/03 08:03:24;;;;;;;10.35;2.80;;;18.10;99.90;;;;;;4861541;29;20057;-83
2023/07/03 08:05:55;;;;;;;7.60;2.63;;;18.10;99.90;;;;;;4862337;29;20038;-83
2023/07/03 08:08:20;;;;;;;16.73;2.88;;;18.20;99.90;;;;;;4862803;29;20038;-83
2023/07/03 08:10:57;;;;;;;10.50;2.25;;;18.20;99.90;;;;;;4861574;29;20123;-83
2023/07/03 08:13:23;;;;;;;8.77;2.10;;;18.20;99.90;;;;;;4862239;29;20041;-83
2023/07/03 08:15:49;;;;;;;11.45;2.72;;;18.20;99.80;;;;;;4862345;29;20029;-83
2023/07/03 08:18:15;;;;;;;7.50;2.20;;;18.30;99.50;;;;;;4861823;29;20030;-83
2023/07/03 08:20:42;;;;;;;8.70;2.70;;;18.20;99.40;;;;;;4862125;29;20033;-82
2023/07/03 08:23:08;;;;;;;8.43;1.95;;;18.30;99.60;;;;;;4860626;29;20036;-83
2023/07/03 08:25:34;;;;;;;5.60;1.90;;;18.30;99.70;;;;;;4862181;29;20049;-82
2023/07/03 08:27:59;;;;;;;10.40;2.58;;;18.50;99.80;;;;;;4861717;29;20042;-83
2023/07/03 08:30:25;;;;;;;12.38;2.65;;;18.20;99.90;;;;;;4861378;29;20522;-82
2023/07/03 08:32:51;;;;;;;6.32;2.13;;;18.60;99.90;;;;;;4861771;29;20039;-83
2023/07/03 08:35:17;;;;;;;8.68;2.40;;;18.20;99.90;;;;;;4862414;29;20085;-83
2023/07/03 08:37:43;;;;;;;8.00;2.22;;;18.20;99.90;;;;;;4844765;29;20129;-83
2023/07/03 08:40:09;;;;;;;9.10;2.47;;;18.20;99.90;;;;;;4861596;29;20078;-83
2023/07/03 08:42:47;;;;;;;5.68;2.10;;;18.20;99.90;;;;;;4861763;29;20034;-83
2023/07/03 08:45:17;;;;;;;7.15;2.58;;;18.20;99.90;;;;;;4862176;29;20033;-82
2023/07/03 08:47:44;;;;;;;6.75;2.00;;;18.20;99.90;;;;;;4864757;29;20053;-83
2023/07/03 08:50:15;;;;;;;12.48;2.70;;;18.30;99.90;;;;;;4861782;29;20040;-83
2023/07/03 08:53:05;;;;;;;6.82;2.40;;;18.30;99.90;;;;;;4861747;29;20033;-83
2023/07/03 08:55:40;;;;;;;7.18;2.08;;;18.30;99.90;;;;;;4856737;29;20174;-83
2023/07/03 08:58:08;;;;;;;18.70;2.78;;;18.40;99.90;;;;;;4861382;29;20034;-83
2023/07/03 09:00:46;;;;;;;11.32;2.60;;;18.40;99.90;;;;;;4862274;29;20046;-83
2023/07/03 09:03:34;;;;;;;9.75;2.70;;;18.40;99.90;;;;;;4861201;29;20504;-83
2023/07/03 09:06:20;;;;;;;7.65;2.28;;;18.40;99.90;;;;;;4855329;29;20200;-83
2023/07/03 09:08:59;;;;;;;15.73;2.60;;;18.50;99.90;;;;;;4860660;29;20102;-83
2023/07/03 09:11:29;;;;;;;12.98;3.58;;;18.60;99.90;;;;;;4862474;29;20056;-82
2023/07/03 09:13:59;;;;;;;12.65;2.35;;;18.60;99.90;;;;;;4860491;29;20026;-83
2023/07/03 09:16:25;;;;;;;12.80;2.60;;;18.50;99.90;;;;;;4861272;29;20067;-83
2023/07/03 09:19:02;;;;;;;16.50;2.63;;;18.60;99.90;;;;;;4861921;29;20057;-83
2023/07/03 09:21:29;;;;;;;8.40;3.05;;;18.60;99.90;;;;;;4860806;29;20037;-83
2023/07/03 09:24:09;;;;;;;8.90;2.60;;;18.60;99.90;;;;;;4861195;29;20037;-83
2023/07/03 09:26:34;;;;;;;12.73;2.35;;;18.50;99.90;;;;;;4860420;29;20042;-83
2023/07/03 09:29:03;;;;;;;8.00;2.05;;;18.50;99.90;;;;;;4861296;29;20383;-83
2023/07/03 09:31:28;;;;;;;9.07;2.38;;;19.00;99.90;;;;;;4862537;29;20036;-83
2023/07/03 09:33:54;;;;;;;8.15;2.45;;;18.50;99.90;;;;;;4860387;29;20482;-82
2023/07/03 09:36:22;;;;;;;7.55;2.58;;;18.40;99.90;;;;;;4860941;29;20375;-82
2023/07/03 09:38:48;;;;;;;7.60;2.15;;;18.40;99.90;;;;;;4876744;29;20025;-83
2023/07/03 09:41:27;;;;;;;15.43;3.58;;;18.50;99.90;;;;;;4883672;29;20097;-82
2023/07/03 09:43:53;;;;;;;8.88;2.75;;;18.40;99.90;;;;;;4849920;29;20033;-82
2023/07/03 09:46:20;;;;;;;11.13;2.72;;;18.40;99.90;;;;;;4860886;29;20608;-83
2023/07/03 09:48:46;;;;;;;11.80;2.38;;;18.70;99.90;;;;;;4860339;29;20045;-82
2023/07/03 09:51:28;;;;;;;12.30;2.88;;;19.00;99.90;;;;;;4860654;29;20112;-83
2023/07/03 09:53:56;;;;;;;8.88;2.65;;;18.30;99.90;;;;;;4860435;29;20033;-83
2023/07/03 09:56:24;;;;;;;11.00;3.00;;;18.40;99.90;;;;;;4860446;29;20021;-83
2023/07/03 09:58:59;;;;;;;11.00;3.88;;;18.30;99.90;;;;;;4860151;29;20057;-83
2023/07/03 10:01:30;;;;;;;14.82;3.47;;;18.40;99.90;;;;;;4861960;29;20412;-82
2023/07/03 10:04:11;;;;;;;15.27;3.17;;;18.40;99.90;;;;;;4862444;29;20059;-82
2023/07/03 10:06:38;;;;;;;12.52;2.63;;;18.40;99.90;;;;;;4861669;29;20514;-82
2023/07/03 10:09:09;;;;;;;11.32;3.28;;;18.30;99.90;;;;;;4860049;29;20097;-83
2023/07/03 10:11:51;;;;;;;10.82;3.65;;;18.40;99.90;;;;;;4860654;29;20026;-82
2023/07/03 10:14:29;;;;;;;7.90;2.20;;;18.40;99.90;;;;;;4862000;29;20457;-82
2023/07/03 10:16:55;;;;;;;7.05;2.10;;;18.40;99.90;;;;;;4861613;29;20048;-82
2023/07/03 10:19:21;;;;;;;14.65;3.35;;;18.30;99.90;;;;;;4861133;29;20411;-82
2023/07/03 10:21:47;;;;;;;9.90;2.55;;;18.30;99.90;;;;;;4860962;29;20064;-82
2023/07/03 10:24:14;;;;;;;13.07;3.72;;;18.30;99.90;;;;;;4861954;29;20425;-82
2023/07/03 10:26:47;;;;;;;8.13;2.72;;;18.30;99.90;;;;;;4860697;29;20053;-82
2023/07/03 10:29:38;;;;;;;17.85;3.08;;;18.30;99.90;;;;;;4861127;29;20033;-82
2023/07/03 10:32:06;;;;;;;7.05;2.72;;;18.20;99.90;;;;;;4862373;29;20104;-82
2023/07/03 10:34:48;;;;;;;16.50;3.38;;;18.20;99.90;;;;;;4860901;29;20057;-82
2023/07/03 10:37:17;;;;;;;9.95;2.90;;;18.20;99.90;;;;;;4860105;29;20028;-82
2023/07/03 10:39:59;;;;;;;11.15;2.42;;;18.20;99.90;;;;;;4861719;29;20040;-82
2023/07/03 10:42:36;;;;;;;8.68;2.55;;;18.20;99.90;;;;;;4861331;29;20026;-82
2023/07/03 10:45:10;;;;;;;10.43;2.25;;;18.10;99.90;;;;;;4860126;29;20030;-82
2023/07/03 10:48:10;;;;;;;5.78;1.98;;;18.20;99.30;;;;;;4863708;29;20037;-82
2023/07/03 10:50:57;;;;;;;14.63;2.80;;;18.10;99.90;;;;;;4864498;29;20029;-81
2023/07/03 10:53:47;;;;;;;9.73;2.10;;;18.20;99.90;;;;;;4863738;29;20030;-82
2023/07/03 10:56:33;;;;;;;8.27;2.60;;;18.20;99.90;;;;;;4864974;29;20037;-82
2023/07/03 10:59:22;;;;;;;6.70;2.60;;;18.10;99.90;;;;;;4863284;29;20045;-82
2023/07/03 11:02:12;;;;;;;9.45;2.45;;;18.10;99.90;;;;;;4863527;29;20032;-83
2023/07/03 11:04:57;;;;;;;7.30;2.40;;;18.20;99.90;;;;;;4864245;29;20029;-83
2023/07/03 11:07:49;;;;;;;12.20;2.78;;;18.10;99.90;;;;;;4863372;29;20053;-82
2023/07/03 11:10:28;;;;;;;9.23;2.80;;;18.10;99.90;;;;;;4863831;29;20049;-82
2023/07/03 11:13:05;;;;;;;10.10;2.75;;;18.20;99.90;;;;;;4862703;29;20041;-82
2023/07/03 11:15:38;;;;;;;8.95;2.72;;;18.20;99.90;;;;;;4863502;29;20105;-82
2023/07/03 11:18:48;;;;;;;18.02;2.85;;;18.20;99.90;;;;;;4863317;29;20026;-82
2023/07/03 11:21:48;;;;;;;10.70;3.17;;;18.20;99.90;;;;;;4863808;29;20089;-82
2023/07/03 11:24:28;;;;;;;10.50;2.28;;;18.30;99.90;;;;;;4869580;29;20085;-83
2023/07/03 11:27:27;;;;;;;7.70;2.28;;;18.30;99.90;;;;;;4883886;29;20374;-82
2023/07/03 11:29:53;;;;;;;8.68;1.92;;;18.40;99.90;;;;;;4865533;29;20082;-82
2023/07/03 11:32:20;;;;;;;7.80;1.85;;;18.50;99.90;;;;;;4863524;29;20034;-82
2023/07/03 11:34:46;;;;;;;12.02;2.80;;;18.50;99.40;;;;;;4862638;29;20102;-82
2023/07/03 11:37:43;;;;;;;7.20;1.60;;;18.50;99.30;;;;;;4862731;29;20104;-82
2023/07/03 11:40:58;;;;;;;6.40;1.80;;;18.50;97.20;;;;;;4862345;29;20077;-82
2023/07/03 11:43:29;;;;;;;5.97;1.10;;;18.60;96.50;;;;;;4831640;29;20066;-82
2023/07/03 11:45:58;;;;;;;3.53;1.10;;;18.60;96.30;;;;;;4862678;29;20041;-82
2023/07/03 11:48:38;;;;;;;8.73;1.67;;;18.60;96.20;;;;;;4862518;29;20037;-82
2023/07/03 11:51:05;;;;;;;4.97;1.58;;;18.60;96.50;;;;;;4862540;29;20606;-82
2023/07/03 11:53:44;;;;;;;6.22;1.25;;;18.60;96.30;;;;;;4862933;29;20109;-82
2023/07/03 11:56:35;;;;;;;3.58;1.15;;;18.60;96.10;;;;;;4862359;29;20048;-82
2023/07/03 11:59:12;;;;;;;3.80;1.23;;;18.70;96.90;;;;;;4855742;29;20038;-82
2023/07/03 12:01:37;;;;;;;9.50;1.50;;;18.70;96.40;;;;;;4862051;29;20399;-83
2023/07/03 12:04:07;;;;;;;14.68;1.40;;;18.60;95.70;;;;;;4862333;29;20038;-83
2023/07/03 12:06:39;;;;;;;5.05;1.52;;;18.80;96.40;;;;;;4862722;29;20112;-83
2023/07/03 12:09:24;;;;;;;6.10;1.40;;;18.70;96.10;;;;;;4862152;29;20069;-83
2023/07/03 12:11:59;;;;;;;9.63;1.90;;;18.60;95.90;;;;;;4862540;29;20033;-82
2023/07/03 12:14:40;;;;;;;3.78;1.70;;;18.70;95.90;;;;;;4862895;29;20041;-82
2023/07/03 12:17:32;;;;;;;4.40;1.27;;;18.60;96.00;;;;;;4862078;29;20060;-82
2023/07/03 12:20:18;;;;;;;4.03;2.03;;;18.60;96.60;;;;;;4862494;29;20047;-82
2023/07/03 12:22:50;;;;;;;6.15;1.85;;;18.60;97.90;;;;;;4862405;29;20049;-82
2023/07/03 12:25:29;;;;;;;8.93;1.80;;;18.60;98.40;;;;;;4862313;29;20128;-82
2023/07/03 12:28:07;;;;;;;5.95;1.77;;;18.70;98.40;;;;;;4861448;29;20052;-82
2023/07/03 12:30:33;;;;;;;8.05;1.60;;;18.60;98.10;;;;;;4862085;29;20053;-82
2023/07/03 12:33:01;;;;;;;7.63;1.92;;;18.60;98.10;;;;;;4861846;29;20076;-82
2023/07/03 12:35:42;;;;;;;5.50;1.42;;;18.60;97.30;;;;;;4862374;29;20060;-82
2023/07/03 12:38:10;;;;;;;6.45;1.48;;;18.60;97.20;;;;;;4861451;29;20026;-82
2023/07/03 12:40:43;;;;;;;5.85;1.85;;;18.60;97.10;;;;;;4861761;29;20037;-82
2023/07/03 12:43:10;;;;;;;5.63;1.52;;;18.60;97.40;;;;;;4861598;29;20386;-82
2023/07/03 12:45:36;;;;;;;7.20;1.52;;;18.50;97.30;;;;;;4861768;29;20030;-82
2023/07/03 12:48:20;;;;;;;9.43;1.65;;;18.60;97.70;;;;;;4861456;29;20048;-82
2023/07/03 12:50:48;;;;;;;4.03;1.48;;;18.60;97.80;;;;;;4861270;29;20120;-82
2023/07/03 12:53:14;;;;;;;6.20;1.55;;;18.70;97.70;;;;;;4862162;29;20029;-82
2023/07/03 12:55:43;;;;;;;7.32;1.77;;;18.60;96.80;;;;;;4862327;29;20034;-82